sensor_id;sensor_type;location;lat;lon;timestamp;pressure;altitude;pressure_sealevel;temperature;humidity
5780;BME280;2916;49.798;10.022;2023-07-13T00:02:08;149403.91;;;20.85;56.98
5780;BME280;2916;49.798;10.022;2023-07-13T00:04:36;149376.41;;;20.74;57.26
5780;BME280;2916;49.798;10.022;2023-07-13T00:07:03;149311.41;;;20.47;57.80
5780;BME280;2916;49.798;10.022;2023-07-13T00:09:31;149342.69;;;20.60;57.44
5780;BME280;2916;49.798;10.022;2023-07-13T00:11:58;149332.72;;;20.56;57.73
5780;BME280;2916;49.798;10.022;2023-07-13T00:14:28;149278.94;;;20.34;58.19
5780;BME280;2916;49.798;10.022;2023-07-13T00:16:56;149251.47;;;20.23;58.20
5780;BME280;2916;49.798;10.022;2023-07-13T00:19:24;149328.94;;;20.54;58.31
5780;BME280;2916;49.798;10.022;2023-07-13T00:21:51;149301.41;;;20.43;58.53
5780;BME280;2916;49.798;10.022;2023-07-13T00:24:21;149266.47;;;20.29;58.31
5780;BME280;2916;49.798;10.022;2023-07-13T00:26:50;149219.00;;;20.09;57.96
5780;BME280;2916;49.798;10.022;2023-07-13T00:29:17;149248.97;;;20.22;58.49
5780;BME280;2916;49.798;10.022;2023-07-13T00:31:45;149265.22;;;20.28;58.25
5780;BME280;2916;49.798;10.022;2023-07-13T00:34:13;149253.94;;;20.24;58.65
5780;BME280;2916;49.798;10.022;2023-07-13T00:36:40;149229.00;;;20.14;58.51
5780;BME280;2916;49.798;10.022;2023-07-13T00:39:07;149246.50;;;20.21;58.78
5780;BME280;2916;49.798;10.022;2023-07-13T00:41:35;149248.97;;;20.22;58.72
5780;BME280;2916;49.798;10.022;2023-07-13T00:44:03;149190.28;;;19.98;58.13
5780;BME280;2916;49.798;10.022;2023-07-13T00:46:33;149229.00;;;20.14;58.55
5780;BME280;2916;49.798;10.022;2023-07-13T00:49:06;149190.28;;;19.98;59.00
5780;BME280;2916;49.798;10.022;2023-07-13T00:51:40;149222.75;;;20.11;58.50
5780;BME280;2916;49.798;10.022;2023-07-13T00:54:15;149206.53;;;20.04;58.84
5780;BME280;2916;49.798;10.022;2023-07-13T00:56:47;149223.97;;;20.11;59.11
5780;BME280;2916;49.798;10.022;2023-07-13T00:59:17;149139.13;;;19.77;58.24
5780;BME280;2916;49.798;10.022;2023-07-13T01:01:45;149174.03;;;19.91;59.30
5780;BME280;2916;49.798;10.022;2023-07-13T01:04:14;149177.81;;;19.93;59.33
5780;BME280;2916;49.798;10.022;2023-07-13T01:06:42;149199.03;;;20.01;58.97
5780;BME280;2916;49.798;10.022;2023-07-13T01:09:11;149159.09;;;19.85;59.13
5780;BME280;2916;49.798;10.022;2023-07-13T01:11:40;149154.06;;;19.83;59.26
5780;BME280;2916;49.798;10.022;2023-07-13T01:14:08;149061.63;;;19.45;59.18
5780;BME280;2916;49.798;10.022;2023-07-13T01:16:37;149122.88;;;19.70;59.65
5780;BME280;2916;49.798;10.022;2023-07-13T01:19:21;148991.75;;;19.17;59.86
5780;BME280;2916;49.798;10.022;2023-07-13T01:21:57;149114.13;;;19.67;59.54
5780;BME280;2916;49.798;10.022;2023-07-13T01:24:24;149074.13;;;19.50;59.36
5780;BME280;2916;49.798;10.022;2023-07-13T01:26:51;149064.16;;;19.46;59.54
5780;BME280;2916;49.798;10.022;2023-07-13T01:29:18;148991.75;;;19.17;59.56
5780;BME280;2916;49.798;10.022;2023-07-13T01:31:45;149084.13;;;19.54;60.35
5780;BME280;2916;49.798;10.022;2023-07-13T01:34:13;148978.03;;;19.11;60.31
5780;BME280;2916;49.798;10.022;2023-07-13T01:36:40;149101.66;;;19.61;59.68
5780;BME280;2916;49.798;10.022;2023-07-13T01:39:08;149085.38;;;19.55;59.27
5780;BME280;2916;49.798;10.022;2023-07-13T01:41:36;149072.91;;;19.50;60.35
5780;BME280;2916;49.798;10.022;2023-07-13T01:44:03;148985.53;;;19.14;61.02
5780;BME280;2916;49.798;10.022;2023-07-13T01:46:31;148921.88;;;18.88;60.09
5780;BME280;2916;49.798;10.022;2023-07-13T01:48:58;149006.75;;;19.23;61.27
5780;BME280;2916;49.798;10.022;2023-07-13T01:51:25;148984.25;;;19.13;61.05
5780;BME280;2916;49.798;10.022;2023-07-13T01:53:52;148960.56;;;19.04;60.89
5780;BME280;2916;49.798;10.022;2023-07-13T01:56:21;148953.06;;;19.01;61.60
5780;BME280;2916;49.798;10.022;2023-07-13T01:58:48;148894.41;;;18.77;62.30
5780;BME280;2916;49.798;10.022;2023-07-13T02:01:15;148915.63;;;18.85;62.51
5780;BME280;2916;49.798;10.022;2023-07-13T02:03:42;148904.41;;;18.81;62.20
5780;BME280;2916;49.798;10.022;2023-07-13T02:06:10;148825.75;;;18.49;62.51
5780;BME280;2916;49.798;10.022;2023-07-13T02:08:38;148851.97;;;18.59;62.90
5780;BME280;2916;49.798;10.022;2023-07-13T02:11:05;148859.41;;;18.62;63.38
5780;BME280;2916;49.798;10.022;2023-07-13T02:13:33;148799.56;;;18.38;62.79
5780;BME280;2916;49.798;10.022;2023-07-13T02:16:01;148817.03;;;18.45;63.61
5780;BME280;2916;49.798;10.022;2023-07-13T02:18:28;148724.72;;;18.07;63.91
5780;BME280;2916;49.798;10.022;2023-07-13T02:20:55;148780.84;;;18.30;64.30
5780;BME280;2916;49.798;10.022;2023-07-13T02:23:22;148797.06;;;18.37;63.44
5780;BME280;2916;49.798;10.022;2023-07-13T02:25:54;148769.63;;;18.26;62.95
5780;BME280;2916;49.798;10.022;2023-07-13T02:28:22;148749.66;;;18.18;63.56
5780;BME280;2916;49.798;10.022;2023-07-13T02:30:50;148711.00;;;18.02;63.15
5780;BME280;2916;49.798;10.022;2023-07-13T02:33:18;148718.50;;;18.05;63.67
5780;BME280;2916;49.798;10.022;2023-07-13T02:35:45;148752.16;;;18.19;63.85
5780;BME280;2916;49.798;10.022;2023-07-13T02:38:12;148612.47;;;17.61;63.41
5780;BME280;2916;49.798;10.022;2023-07-13T02:40:39;148656.13;;;17.79;64.26
5780;BME280;2916;49.798;10.022;2023-07-13T02:43:06;148643.63;;;17.74;64.85
5780;BME280;2916;49.798;10.022;2023-07-13T02:45:33;148656.13;;;17.79;64.61
5780;BME280;2916;49.798;10.022;2023-07-13T02:48:02;148628.63;;;17.68;64.82
5780;BME280;2916;49.798;10.022;2023-07-13T02:50:30;148627.41;;;17.67;65.04
5780;BME280;2916;49.798;10.022;2023-07-13T02:52:57;148602.50;;;17.57;64.62
5780;BME280;2916;49.798;10.022;2023-07-13T02:55:24;148628.63;;;17.68;64.33
5780;BME280;2916;49.798;10.022;2023-07-13T02:57:51;148664.84;;;17.83;64.11
5780;BME280;2916;49.798;10.022;2023-07-13T03:00:20;148667.34;;;17.84;63.71
5780;BME280;2916;49.798;10.022;2023-07-13T03:02:48;148608.69;;;17.60;64.33
5780;BME280;2916;49.798;10.022;2023-07-13T03:05:17;148538.91;;;17.31;63.66
5780;BME280;2916;49.798;10.022;2023-07-13T03:07:44;148486.56;;;17.10;63.45
5780;BME280;2916;49.798;10.022;2023-07-13T03:10:11;148608.69;;;17.60;63.77
5780;BME280;2916;49.798;10.022;2023-07-13T03:12:38;148624.91;;;17.66;63.92
5780;BME280;2916;49.798;10.022;2023-07-13T03:15:06;148627.41;;;17.67;63.86
5780;BME280;2916;49.798;10.022;2023-07-13T03:17:33;148622.44;;;17.65;64.36
5780;BME280;2916;49.798;10.022;2023-07-13T03:20:01;148570.06;;;17.44;63.56
5780;BME280;2916;49.798;10.022;2023-07-13T03:22:30;148592.53;;;17.53;64.30
5780;BME280;2916;49.798;10.022;2023-07-13T03:24:58;148553.88;;;17.37;64.56
5780;BME280;2916;49.798;10.022;2023-07-13T03:27:25;148536.41;;;17.30;64.33
5780;BME280;2916;49.798;10.022;2023-07-13T03:29:52;148561.31;;;17.40;64.65
5780;BME280;2916;49.798;10.022;2023-07-13T03:32:19;148562.59;;;17.41;64.91
5780;BME280;2916;49.798;10.022;2023-07-13T03:34:47;148546.38;;;17.34;64.94
5780;BME280;2916;49.798;10.022;2023-07-13T03:37:14;148413.03;;;16.80;65.15
5780;BME280;2916;49.798;10.022;2023-07-13T03:39:42;148536.41;;;17.30;64.76
5780;BME280;2916;49.798;10.022;2023-07-13T03:42:10;148452.91;;;16.96;65.58
5780;BME280;2916;49.798;10.022;2023-07-13T03:44:40;148445.41;;;16.93;65.54
5780;BME280;2916;49.798;10.022;2023-07-13T03:47:08;148546.38;;;17.34;65.65
5780;BME280;2916;49.798;10.022;2023-07-13T03:49:35;148532.66;;;17.29;65.33
5780;BME280;2916;49.798;10.022;2023-07-13T03:52:02;148532.66;;;17.29;64.72
5780;BME280;2916;49.798;10.022;2023-07-13T03:54:30;148475.31;;;17.05;64.85
5780;BME280;2916;49.798;10.022;2023-07-13T03:57:00;148481.56;;;17.08;65.83
5780;BME280;2916;49.798;10.022;2023-07-13T03:59:27;148434.19;;;16.88;65.75
5780;BME280;2916;49.798;10.022;2023-07-13T04:01:54;148452.91;;;16.96;64.78
5780;BME280;2916;49.798;10.022;2023-07-13T04:04:21;148446.66;;;16.93;64.83
5780;BME280;2916;49.798;10.022;2023-07-13T04:06:49;148515.25;;;17.22;66.39
5780;BME280;2916;49.798;10.022;2023-07-13T04:09:19;148417.97;;;16.82;65.75
5780;BME280;2916;49.798;10.022;2023-07-13T04:11:46;148455.38;;;16.97;65.48
5780;BME280;2916;49.798;10.022;2023-07-13T04:14:15;148500.25;;;17.15;64.69
5780;BME280;2916;49.798;10.022;2023-07-13T04:16:43;148537.66;;;17.31;65.17
5780;BME280;2916;49.798;10.022;2023-07-13T04:19:13;148492.78;;;17.12;65.54
5780;BME280;2916;49.798;10.022;2023-07-13T04:21:40;148470.34;;;17.03;65.12
5780;BME280;2916;49.798;10.022;2023-07-13T04:24:08;148577.53;;;17.47;65.24
5780;BME280;2916;49.798;10.022;2023-07-13T04:26:35;148528.94;;;17.27;64.19
5780;BME280;2916;49.798;10.022;2023-07-13T04:29:04;148607.47;;;17.59;63.74
5780;BME280;2916;49.798;10.022;2023-07-13T04:31:33;148704.75;;;17.99;64.58
5780;BME280;2916;49.798;10.022;2023-07-13T04:34:01;148734.69;;;18.11;64.67
5780;BME280;2916;49.798;10.022;2023-07-13T04:36:28;148794.59;;;18.36;64.30
5780;BME280;2916;49.798;10.022;2023-07-13T04:38:56;148818.28;;;18.46;63.59
5780;BME280;2916;49.798;10.022;2023-07-13T04:41:23;148930.63;;;18.92;62.07
5780;BME280;2916;49.798;10.022;2023-07-13T04:43:50;148940.59;;;18.96;62.17
5780;BME280;2916;49.798;10.022;2023-07-13T04:46:18;148891.94;;;18.76;62.25
5780;BME280;2916;49.798;10.022;2023-07-13T04:48:50;148931.84;;;18.92;61.79
5780;BME280;2916;49.798;10.022;2023-07-13T04:51:19;148911.91;;;18.84;61.50
5780;BME280;2916;49.798;10.022;2023-07-13T04:53:46;148944.31;;;18.97;61.71
5780;BME280;2916;49.798;10.022;2023-07-13T04:56:13;148815.78;;;18.45;61.10
5780;BME280;2916;49.798;10.022;2023-07-13T04:58:40;148861.94;;;18.63;60.79
5780;BME280;2916;49.798;10.022;2023-07-13T05:01:09;148774.63;;;18.28;61.48
5780;BME280;2916;49.798;10.022;2023-07-13T05:03:36;148864.44;;;18.64;60.75
5780;BME280;2916;49.798;10.022;2023-07-13T05:06:07;148879.47;;;18.71;60.67
5780;BME280;2916;49.798;10.022;2023-07-13T05:08:36;148873.19;;;18.68;61.06
5780;BME280;2916;49.798;10.022;2023-07-13T05:11:05;148909.41;;;18.83;61.56
5780;BME280;2916;49.798;10.022;2023-07-13T05:13:32;148929.38;;;18.91;61.54
5780;BME280;2916;49.798;10.022;2023-07-13T05:16:03;148936.81;;;18.94;61.21
5780;BME280;2916;49.798;10.022;2023-07-13T05:18:31;148944.31;;;18.97;60.35
5780;BME280;2916;49.798;10.022;2023-07-13T05:21:01;148955.53;;;19.02;60.78
5780;BME280;2916;49.798;10.022;2023-07-13T05:23:31;148943.09;;;18.97;61.17
5780;BME280;2916;49.798;10.022;2023-07-13T05:26:00;148865.69;;;18.65;60.79
5780;BME280;2916;49.798;10.022;2023-07-13T05:28:28;148920.63;;;18.87;60.31
5780;BME280;2916;49.798;10.022;2023-07-13T05:30:55;148968.06;;;19.07;60.29
5780;BME280;2916;49.798;10.022;2023-07-13T05:33:23;148988.03;;;19.15;59.94
5780;BME280;2916;49.798;10.022;2023-07-13T05:35:50;149149.09;;;19.81;58.61
5780;BME280;2916;49.798;10.022;2023-07-13T05:38:17;149438.91;;;20.99;56.80
5780;BME280;2916;49.798;10.022;2023-07-13T05:40:46;149673.88;;;21.95;52.29
5780;BME280;2916;49.798;10.022;2023-07-13T05:43:14;149755.22;;;22.28;51.78
5780;BME280;2916;49.798;10.022;2023-07-13T05:45:42;149763.91;;;22.32;52.60
5780;BME280;2916;49.798;10.022;2023-07-13T05:48:09;149661.38;;;21.90;51.59
5780;BME280;2916;49.798;10.022;2023-07-13T05:50:36;149686.34;;;22.00;52.09
5780;BME280;2916;49.798;10.022;2023-07-13T05:53:04;149728.94;;;22.18;51.78
5780;BME280;2916;49.798;10.022;2023-07-13T05:55:31;149770.19;;;22.35;51.79
5780;BME280;2916;49.798;10.022;2023-07-13T05:58:01;149743.91;;;22.24;51.11
5780;BME280;2916;49.798;10.022;2023-07-13T06:00:28;149698.88;;;22.05;50.94
5780;BME280;2916;49.798;10.022;2023-07-13T06:02:56;149651.38;;;21.86;51.75
5780;BME280;2916;49.798;10.022;2023-07-13T06:05:24;149558.88;;;21.48;51.99
5780;BME280;2916;49.798;10.022;2023-07-13T06:07:51;149541.38;;;21.41;52.12
5780;BME280;2916;49.798;10.022;2023-07-13T06:10:19;149568.88;;;21.52;51.96
5780;BME280;2916;49.798;10.022;2023-07-13T06:12:48;149623.88;;;21.75;51.49
5780;BME280;2916;49.798;10.022;2023-07-13T06:15:17;149657.59;;;21.89;52.26
5780;BME280;2916;49.798;10.022;2023-07-13T06:17:44;150089.19;;;23.65;49.33
5780;BME280;2916;49.798;10.022;2023-07-13T06:20:12;150138.03;;;23.85;47.64
5780;BME280;2916;49.798;10.022;2023-07-13T06:22:39;150090.44;;;23.65;46.99
5780;BME280;2916;49.798;10.022;2023-07-13T06:25:08;150054.19;;;23.50;48.43
5780;BME280;2916;49.798;10.022;2023-07-13T06:27:35;149965.31;;;23.14;49.14
5780;BME280;2916;49.798;10.022;2023-07-13T06:30:03;150020.38;;;23.37;47.57
5780;BME280;2916;49.798;10.022;2023-07-13T06:32:31;150138.03;;;23.85;46.75
5780;BME280;2916;49.798;10.022;2023-07-13T06:34:58;150274.50;;;24.40;44.71
5780;BME280;2916;49.798;10.022;2023-07-13T06:37:25;150136.78;;;23.84;44.62
5780;BME280;2916;49.798;10.022;2023-07-13T06:39:53;150166.81;;;23.96;45.07
5780;BME280;2916;49.798;10.022;2023-07-13T06:42:20;150382.22;;;24.84;44.56
5780;BME280;2916;49.798;10.022;2023-07-13T06:44:47;150558.81;;;25.56;42.58
5780;BME280;2916;49.798;10.022;2023-07-13T06:47:14;150353.41;;;24.72;43.76
5780;BME280;2916;49.798;10.022;2023-07-13T06:49:44;150243.16;;;24.28;43.90
5780;BME280;2916;49.798;10.022;2023-07-13T06:52:11;150338.38;;;24.66;44.31
5780;BME280;2916;49.798;10.022;2023-07-13T06:54:38;150560.06;;;25.57;43.49
5780;BME280;2916;49.798;10.022;2023-07-13T06:57:06;150494.94;;;25.30;43.70
5780;BME280;2916;49.798;10.022;2023-07-13T06:59:33;150491.19;;;25.29;42.58
5780;BME280;2916;49.798;10.022;2023-07-13T07:02:00;150496.19;;;25.31;42.56
5780;BME280;2916;49.798;10.022;2023-07-13T07:04:28;150592.63;;;25.70;42.86
5780;BME280;2916;49.798;10.022;2023-07-13T07:06:57;150429.78;;;25.04;43.02
5780;BME280;2916;49.798;10.022;2023-07-13T07:09:24;150601.41;;;25.74;41.77
5780;BME280;2916;49.798;10.022;2023-07-13T07:11:52;150778.19;;;26.46;41.57
5780;BME280;2916;49.798;10.022;2023-07-13T07:14:19;151054.00;;;27.58;40.17
5780;BME280;2916;49.798;10.022;2023-07-13T07:16:46;150830.81;;;26.67;39.86
5780;BME280;2916;49.798;10.022;2023-07-13T07:19:13;150938.66;;;27.11;39.48
5780;BME280;2916;49.798;10.022;2023-07-13T07:21:40;151104.22;;;27.78;39.99
5780;BME280;2916;49.798;10.022;2023-07-13T07:24:09;151051.50;;;27.57;38.88
5780;BME280;2916;49.798;10.022;2023-07-13T07:26:36;150840.84;;;26.71;40.85
5780;BME280;2916;49.798;10.022;2023-07-13T07:29:03;151131.81;;;27.89;39.74
5780;BME280;2916;49.798;10.022;2023-07-13T07:31:30;151365.19;;;28.84;37.81
5780;BME280;2916;49.798;10.022;2023-07-13T07:33:58;151397.88;;;28.98;37.79
5780;BME280;2916;49.798;10.022;2023-07-13T07:36:25;151351.41;;;28.79;37.19
5780;BME280;2916;49.798;10.022;2023-07-13T07:38:52;150988.84;;;27.31;39.06
5780;BME280;2916;49.798;10.022;2023-07-13T07:41:20;151397.88;;;28.98;36.85
5780;BME280;2916;49.798;10.022;2023-07-13T07:43:47;151406.66;;;29.01;36.06
5780;BME280;2916;49.798;10.022;2023-07-13T07:46:14;151453.13;;;29.20;35.46
5780;BME280;2916;49.798;10.022;2023-07-13T07:48:42;151402.88;;;29.00;34.45
5780;BME280;2916;49.798;10.022;2023-07-13T07:51:09;151601.25;;;29.80;34.87
5780;BME280;2916;49.798;10.022;2023-07-13T07:53:36;151546.00;;;29.58;34.93
5780;BME280;2916;49.798;10.022;2023-07-13T07:56:03;151596.22;;;29.78;34.56
5780;BME280;2916;49.798;10.022;2023-07-13T07:58:33;151553.56;;;29.61;34.69
5780;BME280;2916;49.798;10.022;2023-07-13T08:01:05;151528.38;;;29.51;34.11
5780;BME280;2916;49.798;10.022;2023-07-13T08:03:33;151611.28;;;29.84;35.80
5780;BME280;2916;49.798;10.022;2023-07-13T08:06:01;151370.22;;;28.86;35.67
5780;BME280;2916;49.798;10.022;2023-07-13T08:08:28;151611.28;;;29.84;34.22
5780;BME280;2916;49.798;10.022;2023-07-13T08:10:56;151650.22;;;30.00;33.90
5780;BME280;2916;49.798;10.022;2023-07-13T08:13:23;151455.59;;;29.21;35.23
5780;BME280;2916;49.798;10.022;2023-07-13T08:15:51;151617.59;;;29.87;35.20
5780;BME280;2916;49.798;10.022;2023-07-13T08:18:19;151775.81;;;30.51;33.51
5780;BME280;2916;49.798;10.022;2023-07-13T08:20:46;151765.78;;;30.47;32.68
5780;BME280;2916;49.798;10.022;2023-07-13T08:23:13;151790.88;;;30.57;32.86
5780;BME280;2916;49.798;10.022;2023-07-13T08:25:42;151822.31;;;30.70;33.14
5780;BME280;2916;49.798;10.022;2023-07-13T08:28:09;151755.75;;;30.43;32.88
5780;BME280;2916;49.798;10.022;2023-07-13T08:30:37;151508.31;;;29.43;34.09
5780;BME280;2916;49.798;10.022;2023-07-13T08:33:05;151588.72;;;29.75;33.20
5780;BME280;2916;49.798;10.022;2023-07-13T08:35:32;151713.03;;;30.26;33.12
5780;BME280;2916;49.798;10.022;2023-07-13T08:37:59;151751.94;;;30.42;32.47
5780;BME280;2916;49.798;10.022;2023-07-13T08:40:28;151915.28;;;31.08;31.44
5780;BME280;2916;49.798;10.022;2023-07-13T08:42:58;151782.13;;;30.54;32.69
5780;BME280;2916;49.798;10.022;2023-07-13T08:45:34;151746.94;;;30.40;32.27
5780;BME280;2916;49.798;10.022;2023-07-13T08:48:14;151611.28;;;29.84;32.98
5780;BME280;2916;49.798;10.022;2023-07-13T08:50:58;151659.00;;;30.04;32.42
5780;BME280;2916;49.798;10.022;2023-07-13T08:53:34;151739.41;;;30.37;33.30
5780;BME280;2916;49.798;10.022;2023-07-13T08:56:04;151705.53;;;30.23;32.42
5780;BME280;2916;49.798;10.022;2023-07-13T08:58:36;151847.44;;;30.80;32.21
5780;BME280;2916;49.798;10.022;2023-07-13T09:01:16;151741.91;;;30.38;33.01
5780;BME280;2916;49.798;10.022;2023-07-13T09:03:57;151638.94;;;29.96;33.82
5780;BME280;2916;49.798;10.022;2023-07-13T09:06:45;151488.22;;;29.34;33.86
5780;BME280;2916;49.798;10.022;2023-07-13T09:09:32;151680.34;;;30.13;32.90
5780;BME280;2916;49.798;10.022;2023-07-13T09:12:13;151512.09;;;29.44;33.78
5780;BME280;2916;49.798;10.022;2023-07-13T09:14:45;151557.28;;;29.63;33.68
5780;BME280;2916;49.798;10.022;2023-07-13T09:17:19;151723.06;;;30.30;33.04
5780;BME280;2916;49.798;10.022;2023-07-13T09:19:58;151710.53;;;30.25;32.96
5780;BME280;2916;49.798;10.022;2023-07-13T09:22:28;151625.09;;;29.90;33.24
5780;BME280;2916;49.798;10.022;2023-07-13T09:25:05;151642.66;;;29.97;32.95
5780;BME280;2916;49.798;10.022;2023-07-13T09:27:38;151690.44;;;30.17;32.82
5780;BME280;2916;49.798;10.022;2023-07-13T09:30:27;151757.00;;;30.44;32.40
5780;BME280;2916;49.798;10.022;2023-07-13T09:32:57;151754.50;;;30.43;32.86
5780;BME280;2916;49.798;10.022;2023-07-13T09:35:28;151794.66;;;30.59;32.34
5780;BME280;2916;49.798;10.022;2023-07-13T09:41:00;151416.72;;;29.05;34.42
5780;BME280;2916;49.798;10.022;2023-07-13T09:43:29;151577.38;;;29.71;34.12
5780;BME280;2916;49.798;10.022;2023-07-13T09:45:57;151777.06;;;30.52;32.87
5780;BME280;2916;49.798;10.022;2023-07-13T09:48:25;151659.00;;;30.04;33.37
5780;BME280;2916;49.798;10.022;2023-07-13T09:51:13;151792.16;;;30.58;33.52
5780;BME280;2916;49.798;10.022;2023-07-13T09:53:42;151613.78;;;29.86;32.34
5780;BME280;2916;49.798;10.022;2023-07-13T09:56:20;151651.47;;;30.01;33.82
5780;BME280;2916;49.798;10.022;2023-07-13T09:58:48;151666.56;;;30.07;33.37
5780;BME280;2916;49.798;10.022;2023-07-13T10:01:15;151518.34;;;29.47;33.52
5780;BME280;2916;49.798;10.022;2023-07-13T10:03:53;151448.06;;;29.18;34.33
5780;BME280;2916;49.798;10.022;2023-07-13T10:06:22;151486.97;;;29.34;33.28
5780;BME280;2916;49.798;10.022;2023-07-13T10:08:51;151130.56;;;27.89;35.65
5780;BME280;2916;49.798;10.022;2023-07-13T10:11:20;151171.94;;;28.06;35.88
5780;BME280;2916;49.798;10.022;2023-07-13T10:13:52;151120.53;;;27.85;35.98
5780;BME280;2916;49.798;10.022;2023-07-13T10:16:23;151125.56;;;27.87;35.86
5780;BME280;2916;49.798;10.022;2023-07-13T10:18:56;151422.94;;;29.08;35.51
5780;BME280;2916;49.798;10.022;2023-07-13T10:21:35;151385.28;;;28.93;35.38
5780;BME280;2916;49.798;10.022;2023-07-13T10:24:14;151509.56;;;29.43;34.58
5780;BME280;2916;49.798;10.022;2023-07-13T10:27:17;151397.88;;;28.98;35.20
5780;BME280;2916;49.798;10.022;2023-07-13T10:29:51;151158.16;;;28.00;35.55
5780;BME280;2916;49.798;10.022;2023-07-13T10:32:23;151373.97;;;28.88;36.01
5780;BME280;2916;49.798;10.022;2023-07-13T10:34:51;151335.06;;;28.72;35.06
5780;BME280;2916;49.798;10.022;2023-07-13T10:37:27;151451.81;;;29.20;34.43
5780;BME280;2916;49.798;10.022;2023-07-13T10:39:57;151498.25;;;29.39;33.85
5780;BME280;2916;49.798;10.022;2023-07-13T10:42:30;151607.56;;;29.83;34.23
5780;BME280;2916;49.798;10.022;2023-07-13T10:44:59;151464.41;;;29.25;34.53
5780;BME280;2916;49.798;10.022;2023-07-13T10:47:26;151372.72;;;28.87;34.66
5780;BME280;2916;49.798;10.022;2023-07-13T10:49:57;151576.13;;;29.70;35.07
5780;BME280;2916;49.798;10.022;2023-07-13T10:52:46;151626.34;;;29.91;33.04
5780;BME280;2916;49.798;10.022;2023-07-13T10:55:38;151633.88;;;29.94;33.19
5780;BME280;2916;49.798;10.022;2023-07-13T10:58:14;151794.66;;;30.59;32.94
5780;BME280;2916;49.798;10.022;2023-07-13T11:00:56;151500.75;;;29.40;34.65
5780;BME280;2916;49.798;10.022;2023-07-13T11:03:28;151455.59;;;29.21;34.42
5780;BME280;2916;49.798;10.022;2023-07-13T11:06:08;151577.38;;;29.71;33.62
5780;BME280;2916;49.798;10.022;2023-07-13T11:08:52;151508.31;;;29.43;33.58
5780;BME280;2916;49.798;10.022;2023-07-13T11:11:36;151473.19;;;29.28;34.65
5780;BME280;2916;49.798;10.022;2023-07-13T11:14:26;151380.25;;;28.91;33.97
5780;BME280;2916;49.798;10.022;2023-07-13T11:16:55;151563.59;;;29.65;32.99
5780;BME280;2916;49.798;10.022;2023-07-13T11:19:41;151375.25;;;28.89;33.71
5780;BME280;2916;49.798;10.022;2023-07-13T11:22:22;151468.16;;;29.26;34.16
5780;BME280;2916;49.798;10.022;2023-07-13T11:25:06;151476.94;;;29.30;34.14
5780;BME280;2916;49.798;10.022;2023-07-13T11:27:52;151686.63;;;30.15;33.02
5780;BME280;2916;49.798;10.022;2023-07-13T11:30:38;151645.16;;;29.98;33.57
5780;BME280;2916;49.798;10.022;2023-07-13T11:33:17;151483.22;;;29.32;33.90
5780;BME280;2916;49.798;10.022;2023-07-13T11:35:58;151395.34;;;28.97;34.68
5780;BME280;2916;49.798;10.022;2023-07-13T11:38:32;151410.41;;;29.03;34.04
5780;BME280;2916;49.798;10.022;2023-07-13T11:41:06;151217.09;;;28.24;34.63
5780;BME280;2916;49.798;10.022;2023-07-13T11:43:34;151234.66;;;28.31;34.59
5780;BME280;2916;49.798;10.022;2023-07-13T11:46:15;151219.59;;;28.25;34.49
5780;BME280;2916;49.798;10.022;2023-07-13T11:48:46;151220.91;;;28.26;34.49
5780;BME280;2916;49.798;10.022;2023-07-13T11:51:22;151175.72;;;28.07;35.07
5780;BME280;2916;49.798;10.022;2023-07-13T11:53:53;151299.97;;;28.58;34.91
5780;BME280;2916;49.798;10.022;2023-07-13T11:56:23;151490.72;;;29.35;34.23
5780;BME280;2916;49.798;10.022;2023-07-13T11:58:53;151480.69;;;29.31;34.34
5780;BME280;2916;49.798;10.022;2023-07-13T12:01:25;151347.66;;;28.77;33.60
5780;BME280;2916;49.798;10.022;2023-07-13T12:03:55;151245.97;;;28.36;33.84
5780;BME280;2916;49.798;10.022;2023-07-13T12:06:28;151209.56;;;28.21;34.16
5780;BME280;2916;49.798;10.022;2023-07-13T12:09:00;151304.97;;;28.60;34.19
5780;BME280;2916;49.798;10.022;2023-07-13T12:11:35;151199.53;;;28.17;35.24
5780;BME280;2916;49.798;10.022;2023-07-13T12:14:03;151124.31;;;27.86;36.69
5780;BME280;2916;49.798;10.022;2023-07-13T12:16:33;151106.75;;;27.79;35.97
5780;BME280;2916;49.798;10.022;2023-07-13T12:19:02;151164.44;;;28.03;35.44
5780;BME280;2916;49.798;10.022;2023-07-13T12:21:38;151084.09;;;27.70;36.34
5780;BME280;2916;49.798;10.022;2023-07-13T12:24:15;151193.28;;;28.14;35.56
5780;BME280;2916;49.798;10.022;2023-07-13T12:26:44;151274.84;;;28.48;34.77
5780;BME280;2916;49.798;10.022;2023-07-13T12:29:16;151257.28;;;28.41;33.91
5780;BME280;2916;49.798;10.022;2023-07-13T12:31:47;151262.31;;;28.43;34.19
5780;BME280;2916;49.798;10.022;2023-07-13T12:34:17;151273.59;;;28.47;34.70
5780;BME280;2916;49.798;10.022;2023-07-13T12:36:49;151345.09;;;28.76;34.10
5780;BME280;2916;49.798;10.022;2023-07-13T12:39:20;151326.28;;;28.69;34.80
5780;BME280;2916;49.798;10.022;2023-07-13T12:41:52;151192.03;;;28.14;35.31
5780;BME280;2916;49.798;10.022;2023-07-13T12:44:27;151192.03;;;28.14;35.47
5780;BME280;2916;49.798;10.022;2023-07-13T12:47:04;151062.78;;;27.61;35.72
5780;BME280;2916;49.798;10.022;2023-07-13T12:49:33;151210.81;;;28.22;34.99
5780;BME280;2916;49.798;10.022;2023-07-13T12:52:04;151322.53;;;28.67;34.44
5780;BME280;2916;49.798;10.022;2023-07-13T12:54:31;151372.72;;;28.87;34.05
5780;BME280;2916;49.798;10.022;2023-07-13T12:57:00;151282.41;;;28.51;35.11
5780;BME280;2916;49.798;10.022;2023-07-13T12:59:32;151302.47;;;28.59;34.40
5780;BME280;2916;49.798;10.022;2023-07-13T13:02:22;151266.06;;;28.44;34.68
5780;BME280;2916;49.798;10.022;2023-07-13T13:04:54;151322.53;;;28.67;34.82
5780;BME280;2916;49.798;10.022;2023-07-13T13:07:23;151286.16;;;28.52;33.97
5780;BME280;2916;49.798;10.022;2023-07-13T13:09:50;151120.53;;;27.85;35.10
5780;BME280;2916;49.798;10.022;2023-07-13T13:12:20;151091.63;;;27.73;36.08
5780;BME280;2916;49.798;10.022;2023-07-13T13:14:47;151086.63;;;27.71;35.58
5780;BME280;2916;49.798;10.022;2023-07-13T13:17:20;151149.38;;;27.97;35.48
5780;BME280;2916;49.798;10.022;2023-07-13T13:19:50;151139.34;;;27.93;35.91